createdAt,value
2017-08-13T00:00:02.642Z,15.1
2017-08-13T00:15:03.247Z,15.1
2017-08-13T00:30:02.964Z,14.9
2017-08-13T00:45:02.617Z,15.1
2017-08-13T01:00:03.278Z,14.7
2017-08-13T01:15:02.871Z,14.6
2017-08-13T01:30:02.736Z,14.5
2017-08-13T01:45:03.665Z,14.4
2017-08-13T02:00:03.335Z,14.4
2017-08-13T02:15:02.986Z,14.4
2017-08-13T02:30:03.220Z,14.3
2017-08-13T02:45:03.039Z,14.2
2017-08-13T03:00:04.710Z,14.2
2017-08-13T03:15:03.700Z,14.2
2017-08-13T03:30:04.133Z,14.2
2017-08-13T03:45:03.423Z,14.4
2017-08-13T04:00:03.721Z,14.1
2017-08-13T04:15:03.566Z,14.1
2017-08-13T04:30:03.946Z,14.2
2017-08-13T04:45:03.406Z,14.3
2017-08-13T05:00:04.930Z,14.5
2017-08-13T05:15:03.217Z,14.7
2017-08-13T05:30:03.351Z,14.8
2017-08-13T05:45:03.411Z,14.8
2017-08-13T06:00:07.093Z,14.9
2017-08-13T06:15:03.313Z,15
2017-08-13T06:30:03.910Z,14.9
2017-08-13T06:45:03.243Z,15.3
2017-08-13T07:00:03.932Z,15.9
2017-08-13T07:15:02.928Z,15.8
2017-08-13T07:30:03.034Z,16
2017-08-13T07:45:03.014Z,16.2
2017-08-13T08:00:03.706Z,17
2017-08-13T08:15:03.087Z,17.1
2017-08-13T08:30:02.974Z,18.2
2017-08-13T08:45:02.947Z,18.4
2017-08-13T09:00:03.635Z,18.9
2017-08-13T09:15:04.220Z,19.9
2017-08-13T09:30:03.648Z,21.1
2017-08-13T09:45:03.666Z,21
2017-08-13T10:00:04.994Z,21.6
2017-08-13T10:15:03.022Z,20.5
2017-08-13T10:30:03.096Z,21.5
2017-08-13T10:45:02.861Z,21.2
2017-08-13T11:00:04.010Z,20.5
2017-08-13T11:15:04.064Z,20.5
2017-08-13T11:30:03.700Z,21.4
2017-08-13T11:45:04.058Z,23.6
2017-08-13T12:00:03.324Z,24.3
2017-08-13T12:15:03.870Z,25.3
2017-08-13T12:30:03.459Z,23.3
2017-08-13T12:45:03.486Z,24.9
2017-08-13T13:00:03.556Z,23.6
2017-08-13T13:15:03.679Z,24.1
2017-08-13T13:30:03.756Z,24.7
2017-08-13T13:45:03.792Z,24.8
2017-08-13T14:00:04.568Z,23.6
2017-08-13T14:15:04.141Z,24.8
2017-08-13T14:30:03.203Z,23.9
2017-08-13T14:45:02.854Z,24
2017-08-13T15:00:04.088Z,23.6
2017-08-13T15:15:03.244Z,23.8
2017-08-13T15:30:03.885Z,23
2017-08-13T15:45:05.129Z,22.2
2017-08-13T16:00:03.935Z,22.6
2017-08-13T16:15:03.121Z,22.4
2017-08-13T16:30:03.181Z,22.2
2017-08-13T16:45:03.937Z,21.6
2017-08-13T17:00:02.931Z,21.1
2017-08-13T17:15:02.760Z,20.9
2017-08-13T17:30:03.929Z,20.4
2017-08-13T17:45:02.988Z,20.2
2017-08-13T18:00:04.212Z,19.2
2017-08-13T18:15:02.786Z,18.9
2017-08-13T18:30:03.722Z,18.4
2017-08-13T18:45:03.879Z,18
2017-08-13T19:00:04.389Z,17.5
2017-08-13T19:15:03.774Z,17.2
2017-08-13T19:30:03.796Z,16.6
2017-08-13T19:45:03.650Z,16
2017-08-13T20:00:04.504Z,16.4
2017-08-13T20:15:03.905Z,16.2
2017-08-13T20:30:03.631Z,16.1
2017-08-13T20:45:03.350Z,15.9
2017-08-13T21:00:04.007Z,15.4
2017-08-13T21:15:02.741Z,15.5
2017-08-13T21:30:04.287Z,15.5
2017-08-13T21:45:03.506Z,15.4
2017-08-13T22:00:07.579Z,15.2
2017-08-13T22:15:03.697Z,15.2
2017-08-13T22:30:04.140Z,15
2017-08-13T22:45:03.557Z,14.7
2017-08-13T23:00:06.749Z,14.7
2017-08-13T23:15:04.188Z,14.3
2017-08-13T23:30:03.147Z,14.4
2017-08-13T23:45:03.788Z,14.2
